Main page
METAR-TAF:

METAR-TAF

Airports :

MOD St Athan

St Athan, Wales

latitude: 51-24N, longitude: 003-26W, elevation: 50 m

Current weather observation

The report was made 50 minutes ago, at 02:50 UTC
Wind 10 kt from the Northeast
Temperature 10°C
Humidity 93%
Pressure 1014 hPa
Visibility 10 km or more

METAR: EGDX 230250Z AUTO 04010KT 9999 BKN031/// 10/09 Q1014

Time: 04:40 (03:40 UTC)

Forecast

The report was made 14 hours and 1 minutes ago, at 13:39 UTC
Forecast valid from 22 at 15 UTC to 22 at 18 UTC
Wind 7 kt from the West
Visibility: 6000 m
Broken clouds at a height of 1000 ft
light rain
Temporary
from 22 at 15 UTC to 22 at 18 UTC
Visibility: 3000 m
Broken clouds at a height of 600 ft
light rain, drizzle

TAF: EGDX 221339Z 2215/2218 26007KT 6000 -RA BKN010 TEMPO 2215/2218 3000 -RADZ BKN006

Weather observations and forecasts of more than 4000 airports (METAR and TAF reports).

The available stations are represented by yellow and red dots on the map.

Hover mouse over dot to see the name of the station.

Then click to see weather observations and forecasts.

To change the map : click on the green buttons with a black cross to zoom in, on the green button with a dash to zoom out, or on the green arrows for adjacent maps.


METAR-TAF: